Terminal Aerodrome Forecast
Issued by NWS Wakefield, VA

Home | Current Version | Previous Version | Text Only | Print | Product List | Glossary On
Versions: 1 2 3 4 5 6 7 8 9 10 11 12 13 14
050
FTUS41 KAKQ 081739
TAFSBY
TAF
KSBY 081739Z 0818/0918 04008KT P6SM BKN025
     FM082100 07007KT P6SM SCT025 SCT035
     FM090200 08009KT P6SM OVC070
     FM090400 11006KT 5SM -RA BR SCT012 OVC025
     FM091000 05006KT P6SM OVC012
     FM091500 34008KT P6SM BKN020=

USA.gov is the U.S. government's official web portal to all federal, state and local government web resources and services.